sensor_id;sensor_type;location;lat;lon;timestamp;P1;durP1;ratioP1;P2;durP2;ratioP2
52210;SDS011;38179;52.756;6.906;2023-05-10T00:01:51;26.00;;;23.40;;
52210;SDS011;38179;52.756;6.906;2023-05-10T00:04:17;24.00;;;21.73;;
52210;SDS011;38179;52.756;6.906;2023-05-10T00:06:43;24.52;;;22.25;;
52210;SDS011;38179;52.756;6.906;2023-05-10T00:09:09;22.75;;;20.75;;
52210;SDS011;38179;52.756;6.906;2023-05-10T00:11:35;21.75;;;19.67;;
52210;SDS011;38179;52.756;6.906;2023-05-10T00:14:01;21.42;;;19.65;;
52210;SDS011;38179;52.756;6.906;2023-05-10T00:16:26;21.35;;;19.48;;
52210;SDS011;38179;52.756;6.906;2023-05-10T00:18:52;22.85;;;20.67;;
52210;SDS011;38179;52.756;6.906;2023-05-10T00:21:18;21.52;;;19.70;;
52210;SDS011;38179;52.756;6.906;2023-05-10T00:23:44;21.48;;;19.67;;
52210;SDS011;38179;52.756;6.906;2023-05-10T00:26:10;21.70;;;19.80;;
52210;SDS011;38179;52.756;6.906;2023-05-10T00:28:36;21.48;;;19.67;;
52210;SDS011;38179;52.756;6.906;2023-05-10T00:31:02;21.63;;;19.80;;
52210;SDS011;38179;52.756;6.906;2023-05-10T00:33:28;21.60;;;19.73;;
52210;SDS011;38179;52.756;6.906;2023-05-10T00:35:54;22.25;;;20.35;;
52210;SDS011;38179;52.756;6.906;2023-05-10T00:38:20;22.02;;;20.02;;
52210;SDS011;38179;52.756;6.906;2023-05-10T00:40:45;20.83;;;19.05;;
52210;SDS011;38179;52.756;6.906;2023-05-10T00:43:11;21.30;;;19.50;;
52210;SDS011;38179;52.756;6.906;2023-05-10T00:45:37;21.70;;;19.75;;
52210;SDS011;38179;52.756;6.906;2023-05-10T00:48:06;21.17;;;19.35;;
52210;SDS011;38179;52.756;6.906;2023-05-10T00:50:32;21.75;;;19.83;;
52210;SDS011;38179;52.756;6.906;2023-05-10T00:52:58;22.42;;;20.33;;
52210;SDS011;38179;52.756;6.906;2023-05-10T00:55:25;21.45;;;19.65;;
52210;SDS011;38179;52.756;6.906;2023-05-10T00:57:52;20.95;;;19.05;;
52210;SDS011;38179;52.756;6.906;2023-05-10T01:00:19;21.33;;;19.38;;
52210;SDS011;38179;52.756;6.906;2023-05-10T01:02:45;21.15;;;19.05;;
52210;SDS011;38179;52.756;6.906;2023-05-10T01:05:11;22.38;;;20.38;;
52210;SDS011;38179;52.756;6.906;2023-05-10T01:07:38;21.23;;;19.42;;
52210;SDS011;38179;52.756;6.906;2023-05-10T01:10:07;22.63;;;20.50;;
52210;SDS011;38179;52.756;6.906;2023-05-10T01:12:35;22.85;;;20.70;;
52210;SDS011;38179;52.756;6.906;2023-05-10T01:15:05;21.48;;;19.63;;
52210;SDS011;38179;52.756;6.906;2023-05-10T01:17:33;23.30;;;21.25;;
52210;SDS011;38179;52.756;6.906;2023-05-10T01:20:01;22.17;;;20.17;;
52210;SDS011;38179;52.756;6.906;2023-05-10T01:25:31;23.17;;;21.05;;
52210;SDS011;38179;52.756;6.906;2023-05-10T01:30:52;23.25;;;21.15;;
52210;SDS011;38179;52.756;6.906;2023-05-10T01:33:30;23.77;;;21.58;;
52210;SDS011;38179;52.756;6.906;2023-05-10T01:36:19;23.55;;;21.35;;
52210;SDS011;38179;52.756;6.906;2023-05-10T01:41:39;24.05;;;21.75;;
52210;SDS011;38179;52.756;6.906;2023-05-10T01:44:19;23.50;;;21.30;;
52210;SDS011;38179;52.756;6.906;2023-05-10T01:47:03;23.70;;;21.42;;
52210;SDS011;38179;52.756;6.906;2023-05-10T01:49:34;23.20;;;21.00;;
52210;SDS011;38179;52.756;6.906;2023-05-10T01:52:06;23.95;;;21.75;;
52210;SDS011;38179;52.756;6.906;2023-05-10T01:54:37;22.98;;;20.75;;
52210;SDS011;38179;52.756;6.906;2023-05-10T01:57:07;22.92;;;20.67;;
52210;SDS011;38179;52.756;6.906;2023-05-10T01:59:37;23.88;;;21.75;;
52210;SDS011;38179;52.756;6.906;2023-05-10T02:02:08;23.85;;;21.50;;
52210;SDS011;38179;52.756;6.906;2023-05-10T02:04:37;23.02;;;20.85;;
52210;SDS011;38179;52.756;6.906;2023-05-10T02:07:05;23.75;;;21.52;;
52210;SDS011;38179;52.756;6.906;2023-05-10T02:09:32;22.60;;;20.50;;
52210;SDS011;38179;52.756;6.906;2023-05-10T02:12:00;24.33;;;22.00;;
52210;SDS011;38179;52.756;6.906;2023-05-10T02:17:00;23.20;;;21.05;;
52210;SDS011;38179;52.756;6.906;2023-05-10T02:19:29;21.95;;;19.85;;
52210;SDS011;38179;52.756;6.906;2023-05-10T02:21:56;22.48;;;20.42;;
52210;SDS011;38179;52.756;6.906;2023-05-10T02:24:24;22.85;;;20.75;;
52210;SDS011;38179;52.756;6.906;2023-05-10T02:26:51;22.40;;;20.27;;
52210;SDS011;38179;52.756;6.906;2023-05-10T02:29:23;22.13;;;20.02;;
52210;SDS011;38179;52.756;6.906;2023-05-10T02:31:51;22.65;;;20.45;;
52210;SDS011;38179;52.756;6.906;2023-05-10T02:34:20;21.33;;;19.33;;
52210;SDS011;38179;52.756;6.906;2023-05-10T02:36:47;21.30;;;19.38;;
52210;SDS011;38179;52.756;6.906;2023-05-10T02:39:17;21.30;;;19.40;;
52210;SDS011;38179;52.756;6.906;2023-05-10T02:41:48;20.83;;;18.92;;
52210;SDS011;38179;52.756;6.906;2023-05-10T02:44:15;20.50;;;18.50;;
52210;SDS011;38179;52.756;6.906;2023-05-10T02:46:44;19.48;;;17.67;;
52210;SDS011;38179;52.756;6.906;2023-05-10T02:49:11;19.83;;;18.02;;
52210;SDS011;38179;52.756;6.906;2023-05-10T02:51:37;20.90;;;19.00;;
52210;SDS011;38179;52.756;6.906;2023-05-10T02:54:15;20.58;;;18.55;;
52210;SDS011;38179;52.756;6.906;2023-05-10T02:56:48;19.73;;;17.88;;
52210;SDS011;38179;52.756;6.906;2023-05-10T02:59:18;19.83;;;18.10;;
52210;SDS011;38179;52.756;6.906;2023-05-10T03:01:44;20.58;;;18.75;;
52210;SDS011;38179;52.756;6.906;2023-05-10T03:04:10;19.98;;;18.05;;
52210;SDS011;38179;52.756;6.906;2023-05-10T03:06:36;19.92;;;18.13;;
52210;SDS011;38179;52.756;6.906;2023-05-10T03:09:02;20.38;;;18.58;;
52210;SDS011;38179;52.756;6.906;2023-05-10T03:14:22;19.10;;;17.40;;
52210;SDS011;38179;52.756;6.906;2023-05-10T03:17:01;18.33;;;16.73;;
52210;SDS011;38179;52.756;6.906;2023-05-10T03:19:39;19.00;;;17.30;;
52210;SDS011;38179;52.756;6.906;2023-05-10T03:22:10;20.30;;;18.50;;
52210;SDS011;38179;52.756;6.906;2023-05-10T03:24:39;19.35;;;17.60;;
52210;SDS011;38179;52.756;6.906;2023-05-10T03:27:07;18.80;;;17.10;;
52210;SDS011;38179;52.756;6.906;2023-05-10T03:29:34;19.83;;;17.95;;
52210;SDS011;38179;52.756;6.906;2023-05-10T03:32:02;18.63;;;17.02;;
52210;SDS011;38179;52.756;6.906;2023-05-10T03:34:29;18.92;;;17.13;;
52210;SDS011;38179;52.756;6.906;2023-05-10T03:36:56;20.58;;;18.67;;
52210;SDS011;38179;52.756;6.906;2023-05-10T03:39:21;19.40;;;17.60;;
52210;SDS011;38179;52.756;6.906;2023-05-10T03:41:47;20.08;;;18.38;;
52210;SDS011;38179;52.756;6.906;2023-05-10T03:44:16;19.55;;;17.75;;
52210;SDS011;38179;52.756;6.906;2023-05-10T03:46:42;20.15;;;18.25;;
52210;SDS011;38179;52.756;6.906;2023-05-10T03:49:08;18.25;;;16.65;;
52210;SDS011;38179;52.756;6.906;2023-05-10T03:51:34;18.77;;;17.08;;
52210;SDS011;38179;52.756;6.906;2023-05-10T03:54:00;18.92;;;17.23;;
52210;SDS011;38179;52.756;6.906;2023-05-10T03:56:25;19.52;;;17.73;;
52210;SDS011;38179;52.756;6.906;2023-05-10T03:58:51;19.20;;;17.25;;
52210;SDS011;38179;52.756;6.906;2023-05-10T04:01:17;19.40;;;17.60;;
52210;SDS011;38179;52.756;6.906;2023-05-10T04:03:43;19.85;;;17.95;;
52210;SDS011;38179;52.756;6.906;2023-05-10T04:06:10;19.77;;;17.98;;
52210;SDS011;38179;52.756;6.906;2023-05-10T04:08:36;19.65;;;17.83;;
52210;SDS011;38179;52.756;6.906;2023-05-10T04:11:09;19.10;;;17.45;;
52210;SDS011;38179;52.756;6.906;2023-05-10T04:13:36;20.27;;;17.58;;
52210;SDS011;38179;52.756;6.906;2023-05-10T04:16:02;18.52;;;16.92;;
52210;SDS011;38179;52.756;6.906;2023-05-10T04:18:28;18.55;;;16.95;;
52210;SDS011;38179;52.756;6.906;2023-05-10T04:20:54;19.10;;;17.40;;
52210;SDS011;38179;52.756;6.906;2023-05-10T04:23:20;20.05;;;18.35;;
52210;SDS011;38179;52.756;6.906;2023-05-10T04:25:46;19.52;;;17.83;;
52210;SDS011;38179;52.756;6.906;2023-05-10T04:28:12;19.65;;;17.73;;
52210;SDS011;38179;52.756;6.906;2023-05-10T04:30:38;19.90;;;17.92;;
52210;SDS011;38179;52.756;6.906;2023-05-10T04:33:04;19.30;;;17.40;;
52210;SDS011;38179;52.756;6.906;2023-05-10T04:35:30;19.60;;;17.80;;
52210;SDS011;38179;52.756;6.906;2023-05-10T04:37:56;19.77;;;17.95;;
52210;SDS011;38179;52.756;6.906;2023-05-10T04:40:21;20.33;;;18.50;;
52210;SDS011;38179;52.756;6.906;2023-05-10T04:42:47;20.42;;;18.60;;
52210;SDS011;38179;52.756;6.906;2023-05-10T04:45:13;21.42;;;19.42;;
52210;SDS011;38179;52.756;6.906;2023-05-10T04:47:42;20.70;;;18.85;;
52210;SDS011;38179;52.756;6.906;2023-05-10T04:50:08;21.08;;;19.15;;
52210;SDS011;38179;52.756;6.906;2023-05-10T04:52:34;21.65;;;19.58;;
52210;SDS011;38179;52.756;6.906;2023-05-10T04:55:01;20.77;;;18.88;;
52210;SDS011;38179;52.756;6.906;2023-05-10T04:57:27;20.40;;;18.42;;
52210;SDS011;38179;52.756;6.906;2023-05-10T04:59:53;21.90;;;19.77;;
52210;SDS011;38179;52.756;6.906;2023-05-10T05:02:19;20.52;;;18.63;;
52210;SDS011;38179;52.756;6.906;2023-05-10T05:04:45;21.60;;;19.05;;
52210;SDS011;38179;52.756;6.906;2023-05-10T05:07:11;20.88;;;18.77;;
52210;SDS011;38179;52.756;6.906;2023-05-10T05:09:37;22.35;;;20.05;;
52210;SDS011;38179;52.756;6.906;2023-05-10T05:12:02;21.05;;;19.08;;
52210;SDS011;38179;52.756;6.906;2023-05-10T05:14:29;21.08;;;19.08;;
52210;SDS011;38179;52.756;6.906;2023-05-10T05:16:55;20.98;;;18.98;;
52210;SDS011;38179;52.756;6.906;2023-05-10T05:19:21;22.38;;;20.20;;
52210;SDS011;38179;52.756;6.906;2023-05-10T05:21:47;20.35;;;18.45;;
52210;SDS011;38179;52.756;6.906;2023-05-10T05:24:13;20.83;;;18.75;;
52210;SDS011;38179;52.756;6.906;2023-05-10T05:26:39;20.58;;;18.55;;
52210;SDS011;38179;52.756;6.906;2023-05-10T05:29:05;20.52;;;18.52;;
52210;SDS011;38179;52.756;6.906;2023-05-10T05:31:31;20.90;;;18.65;;
52210;SDS011;38179;52.756;6.906;2023-05-10T05:33:57;19.83;;;18.02;;
52210;SDS011;38179;52.756;6.906;2023-05-10T05:36:23;19.60;;;17.70;;
52210;SDS011;38179;52.756;6.906;2023-05-10T05:38:49;19.95;;;17.95;;
52210;SDS011;38179;52.756;6.906;2023-05-10T05:41:15;19.42;;;17.52;;
52210;SDS011;38179;52.756;6.906;2023-05-10T05:43:41;18.88;;;17.00;;
52210;SDS011;38179;52.756;6.906;2023-05-10T05:46:07;19.30;;;17.40;;
52210;SDS011;38179;52.756;6.906;2023-05-10T05:48:33;20.08;;;18.02;;
52210;SDS011;38179;52.756;6.906;2023-05-10T05:50:59;19.42;;;17.52;;
52210;SDS011;38179;52.756;6.906;2023-05-10T05:53:25;19.17;;;17.30;;
52210;SDS011;38179;52.756;6.906;2023-05-10T05:55:51;18.85;;;17.05;;
52210;SDS011;38179;52.756;6.906;2023-05-10T05:58:19;19.48;;;17.48;;
52210;SDS011;38179;52.756;6.906;2023-05-10T06:00:46;18.70;;;16.95;;
52210;SDS011;38179;52.756;6.906;2023-05-10T06:03:12;19.35;;;17.52;;
52210;SDS011;38179;52.756;6.906;2023-05-10T06:05:38;18.83;;;16.83;;
52210;SDS011;38179;52.756;6.906;2023-05-10T06:08:03;18.80;;;16.83;;
52210;SDS011;38179;52.756;6.906;2023-05-10T06:10:30;19.50;;;17.60;;
52210;SDS011;38179;52.756;6.906;2023-05-10T06:12:56;18.05;;;16.20;;
52210;SDS011;38179;52.756;6.906;2023-05-10T06:15:22;20.35;;;18.25;;
52210;SDS011;38179;52.756;6.906;2023-05-10T06:17:48;19.67;;;17.33;;
52210;SDS011;38179;52.756;6.906;2023-05-10T06:20:15;19.50;;;17.52;;
52210;SDS011;38179;52.756;6.906;2023-05-10T06:22:41;19.58;;;17.58;;
52210;SDS011;38179;52.756;6.906;2023-05-10T06:25:07;19.35;;;17.27;;
52210;SDS011;38179;52.756;6.906;2023-05-10T06:27:33;19.23;;;17.33;;
52210;SDS011;38179;52.756;6.906;2023-05-10T06:30:00;21.25;;;17.83;;
52210;SDS011;38179;52.756;6.906;2023-05-10T06:32:26;19.42;;;17.65;;
52210;SDS011;38179;52.756;6.906;2023-05-10T06:34:52;19.85;;;17.77;;
52210;SDS011;38179;52.756;6.906;2023-05-10T06:37:17;19.13;;;17.23;;
52210;SDS011;38179;52.756;6.906;2023-05-10T06:39:43;19.20;;;17.30;;
52210;SDS011;38179;52.756;6.906;2023-05-10T06:42:09;19.35;;;17.25;;
52210;SDS011;38179;52.756;6.906;2023-05-10T06:44:35;19.63;;;17.70;;
52210;SDS011;38179;52.756;6.906;2023-05-10T06:47:01;19.48;;;17.55;;
52210;SDS011;38179;52.756;6.906;2023-05-10T06:49:27;18.83;;;16.98;;
52210;SDS011;38179;52.756;6.906;2023-05-10T06:51:53;19.20;;;17.10;;
52210;SDS011;38179;52.756;6.906;2023-05-10T06:54:23;18.80;;;16.90;;
52210;SDS011;38179;52.756;6.906;2023-05-10T06:56:49;21.17;;;17.48;;
52210;SDS011;38179;52.756;6.906;2023-05-10T06:59:15;19.35;;;17.45;;
52210;SDS011;38179;52.756;6.906;2023-05-10T07:01:42;18.98;;;17.27;;
52210;SDS011;38179;52.756;6.906;2023-05-10T07:04:07;20.48;;;18.25;;
52210;SDS011;38179;52.756;6.906;2023-05-10T07:06:33;18.33;;;16.63;;
52210;SDS011;38179;52.756;6.906;2023-05-10T07:09:00;24.77;;;17.13;;
52210;SDS011;38179;52.756;6.906;2023-05-10T07:11:25;18.50;;;16.67;;
52210;SDS011;38179;52.756;6.906;2023-05-10T07:13:51;18.98;;;17.05;;
52210;SDS011;38179;52.756;6.906;2023-05-10T07:16:18;17.77;;;16.08;;
52210;SDS011;38179;52.756;6.906;2023-05-10T07:18:44;17.80;;;16.00;;
52210;SDS011;38179;52.756;6.906;2023-05-10T07:21:10;18.40;;;16.65;;
52210;SDS011;38179;52.756;6.906;2023-05-10T07:23:36;19.55;;;17.58;;
52210;SDS011;38179;52.756;6.906;2023-05-10T07:26:02;17.95;;;16.25;;
52210;SDS011;38179;52.756;6.906;2023-05-10T07:28:29;19.05;;;17.05;;
52210;SDS011;38179;52.756;6.906;2023-05-10T07:30:55;17.48;;;15.93;;
52210;SDS011;38179;52.756;6.906;2023-05-10T07:33:21;17.27;;;15.63;;
52210;SDS011;38179;52.756;6.906;2023-05-10T07:35:47;17.55;;;15.85;;
52210;SDS011;38179;52.756;6.906;2023-05-10T07:38:16;17.83;;;16.02;;
52210;SDS011;38179;52.756;6.906;2023-05-10T07:40:42;17.48;;;15.75;;
52210;SDS011;38179;52.756;6.906;2023-05-10T07:43:08;17.65;;;15.98;;
52210;SDS011;38179;52.756;6.906;2023-05-10T07:45:34;17.58;;;15.88;;
52210;SDS011;38179;52.756;6.906;2023-05-10T07:48:00;17.08;;;15.38;;
52210;SDS011;38179;52.756;6.906;2023-05-10T07:50:26;16.48;;;14.98;;
52210;SDS011;38179;52.756;6.906;2023-05-10T07:52:52;16.88;;;15.30;;
52210;SDS011;38179;52.756;6.906;2023-05-10T07:55:18;17.10;;;15.52;;
52210;SDS011;38179;52.756;6.906;2023-05-10T07:57:46;17.67;;;14.95;;
52210;SDS011;38179;52.756;6.906;2023-05-10T08:00:12;15.73;;;14.23;;
52210;SDS011;38179;52.756;6.906;2023-05-10T08:02:41;16.98;;;15.25;;
52210;SDS011;38179;52.756;6.906;2023-05-10T08:05:10;17.42;;;15.73;;
52210;SDS011;38179;52.756;6.906;2023-05-10T08:07:36;16.85;;;15.35;;
52210;SDS011;38179;52.756;6.906;2023-05-10T08:10:03;17.73;;;15.48;;
52210;SDS011;38179;52.756;6.906;2023-05-10T08:12:29;16.05;;;14.65;;
52210;SDS011;38179;52.756;6.906;2023-05-10T08:14:55;16.70;;;15.10;;
52210;SDS011;38179;52.756;6.906;2023-05-10T08:17:21;16.98;;;15.27;;
52210;SDS011;38179;52.756;6.906;2023-05-10T08:19:47;17.00;;;15.32;;
52210;SDS011;38179;52.756;6.906;2023-05-10T08:22:13;16.70;;;15.25;;
52210;SDS011;38179;52.756;6.906;2023-05-10T08:24:39;16.77;;;15.18;;
52210;SDS011;38179;52.756;6.906;2023-05-10T08:27:07;17.08;;;15.48;;
52210;SDS011;38179;52.756;6.906;2023-05-10T08:29:34;16.75;;;15.25;;
52210;SDS011;38179;52.756;6.906;2023-05-10T08:32:00;15.80;;;14.35;;
52210;SDS011;38179;52.756;6.906;2023-05-10T08:34:26;15.65;;;14.18;;
52210;SDS011;38179;52.756;6.906;2023-05-10T08:36:52;15.95;;;14.57;;
52210;SDS011;38179;52.756;6.906;2023-05-10T08:39:18;15.98;;;14.48;;
52210;SDS011;38179;52.756;6.906;2023-05-10T08:41:45;16.55;;;14.90;;
52210;SDS011;38179;52.756;6.906;2023-05-10T08:44:13;15.93;;;14.35;;
52210;SDS011;38179;52.756;6.906;2023-05-10T08:46:41;15.90;;;14.25;;
52210;SDS011;38179;52.756;6.906;2023-05-10T08:49:11;15.73;;;14.15;;
52210;SDS011;38179;52.756;6.906;2023-05-10T08:54:32;15.82;;;14.32;;
52210;SDS011;38179;52.756;6.906;2023-05-10T08:56:59;15.20;;;14.00;;
52210;SDS011;38179;52.756;6.906;2023-05-10T08:59:25;15.18;;;13.73;;
52210;SDS011;38179;52.756;6.906;2023-05-10T09:01:52;15.38;;;13.93;;
52210;SDS011;38179;52.756;6.906;2023-05-10T09:04:21;14.68;;;13.27;;
52210;SDS011;38179;52.756;6.906;2023-05-10T09:06:47;15.02;;;13.63;;
52210;SDS011;38179;52.756;6.906;2023-05-10T09:09:16;15.88;;;14.43;;
52210;SDS011;38179;52.756;6.906;2023-05-10T09:11:43;14.63;;;13.32;;
52210;SDS011;38179;52.756;6.906;2023-05-10T09:14:10;15.48;;;14.10;;
52210;SDS011;38179;52.756;6.906;2023-05-10T09:16:37;15.20;;;13.85;;
52210;SDS011;38179;52.756;6.906;2023-05-10T09:19:06;15.55;;;13.95;;
52210;SDS011;38179;52.756;6.906;2023-05-10T09:21:34;15.93;;;14.27;;
52210;SDS011;38179;52.756;6.906;2023-05-10T09:24:03;14.68;;;13.35;;
52210;SDS011;38179;52.756;6.906;2023-05-10T09:26:30;14.88;;;13.60;;
52210;SDS011;38179;52.756;6.906;2023-05-10T09:28:58;14.70;;;13.50;;
52210;SDS011;38179;52.756;6.906;2023-05-10T09:31:42;15.00;;;13.80;;
52210;SDS011;38179;52.756;6.906;2023-05-10T09:34:11;14.50;;;13.30;;
52210;SDS011;38179;52.756;6.906;2023-05-10T09:36:50;14.50;;;13.18;;
52210;SDS011;38179;52.756;6.906;2023-05-10T09:39:29;14.57;;;13.38;;
52210;SDS011;38179;52.756;6.906;2023-05-10T09:42:01;15.18;;;13.98;;
52210;SDS011;38179;52.756;6.906;2023-05-10T09:44:32;15.23;;;13.82;;
52210;SDS011;38179;52.756;6.906;2023-05-10T09:46:59;15.40;;;14.02;;
52210;SDS011;38179;52.756;6.906;2023-05-10T09:49:26;15.18;;;13.75;;
52210;SDS011;38179;52.756;6.906;2023-05-10T09:54:28;15.68;;;14.27;;
52210;SDS011;38179;52.756;6.906;2023-05-10T09:56:55;15.50;;;14.20;;
52210;SDS011;38179;52.756;6.906;2023-05-10T09:59:21;15.63;;;14.32;;
52210;SDS011;38179;52.756;6.906;2023-05-10T10:01:50;16.35;;;14.82;;
52210;SDS011;38179;52.756;6.906;2023-05-10T10:04:16;16.40;;;15.00;;
52210;SDS011;38179;52.756;6.906;2023-05-10T10:06:42;16.45;;;14.95;;
52210;SDS011;38179;52.756;6.906;2023-05-10T10:09:08;15.45;;;14.15;;
52210;SDS011;38179;52.756;6.906;2023-05-10T10:11:35;16.33;;;14.93;;
52210;SDS011;38179;52.756;6.906;2023-05-10T10:14:29;16.88;;;15.38;;
52210;SDS011;38179;52.756;6.906;2023-05-10T10:17:32;16.80;;;15.20;;
52210;SDS011;38179;52.756;6.906;2023-05-10T10:20:01;15.52;;;14.25;;
52210;SDS011;38179;52.756;6.906;2023-05-10T10:22:28;16.90;;;15.32;;
52210;SDS011;38179;52.756;6.906;2023-05-10T10:24:54;17.05;;;15.55;;
52210;SDS011;38179;52.756;6.906;2023-05-10T10:27:24;17.40;;;15.80;;
52210;SDS011;38179;52.756;6.906;2023-05-10T10:35:25;17.55;;;15.85;;
52210;SDS011;38179;52.756;6.906;2023-05-10T10:37:51;17.67;;;16.08;;
52210;SDS011;38179;52.756;6.906;2023-05-10T10:42:53;16.92;;;15.45;;
52210;SDS011;38179;52.756;6.906;2023-05-10T10:45:20;16.98;;;15.48;;
52210;SDS011;38179;52.756;6.906;2023-05-10T10:47:47;16.25;;;14.93;;
52210;SDS011;38179;52.756;6.906;2023-05-10T10:50:13;17.70;;;16.10;;
52210;SDS011;38179;52.756;6.906;2023-05-10T10:52:44;18.02;;;16.33;;
52210;SDS011;38179;52.756;6.906;2023-05-10T10:55:11;16.92;;;15.43;;
52210;SDS011;38179;52.756;6.906;2023-05-10T10:57:51;17.27;;;15.73;;
52210;SDS011;38179;52.756;6.906;2023-05-10T11:00:31;18.05;;;16.38;;
52210;SDS011;38179;52.756;6.906;2023-05-10T11:03:09;17.45;;;15.95;;
52210;SDS011;38179;52.756;6.906;2023-05-10T11:05:40;17.33;;;15.73;;
52210;SDS011;38179;52.756;6.906;2023-05-10T11:08:07;17.35;;;15.85;;
52210;SDS011;38179;52.756;6.906;2023-05-10T11:13:05;17.48;;;15.88;;
52210;SDS011;38179;52.756;6.906;2023-05-10T11:15:36;16.90;;;15.50;;
52210;SDS011;38179;52.756;6.906;2023-05-10T11:20:57;18.63;;;16.90;;
52210;SDS011;38179;52.756;6.906;2023-05-10T11:26:11;18.85;;;17.15;;
52210;SDS011;38179;52.756;6.906;2023-05-10T11:28:41;18.00;;;16.48;;
52210;SDS011;38179;52.756;6.906;2023-05-10T11:31:14;18.70;;;16.90;;
52210;SDS011;38179;52.756;6.906;2023-05-10T11:33:44;18.85;;;17.20;;
52210;SDS011;38179;52.756;6.906;2023-05-10T11:36:11;18.42;;;16.73;;
52210;SDS011;38179;52.756;6.906;2023-05-10T11:38:41;19.58;;;17.77;;
52210;SDS011;38179;52.756;6.906;2023-05-10T11:41:10;19.88;;;18.08;;
52210;SDS011;38179;52.756;6.906;2023-05-10T11:43:40;18.92;;;16.98;;
52210;SDS011;38179;52.756;6.906;2023-05-10T11:46:07;17.23;;;15.65;;
52210;SDS011;38179;52.756;6.906;2023-05-10T11:48:35;17.88;;;16.27;;
52210;SDS011;38179;52.756;6.906;2023-05-10T11:51:01;23.25;;;16.33;;
52210;SDS011;38179;52.756;6.906;2023-05-10T11:53:29;17.88;;;16.20;;
52210;SDS011;38179;52.756;6.906;2023-05-10T11:56:06;18.75;;;17.02;;
52210;SDS011;38179;52.756;6.906;2023-05-10T11:58:34;18.38;;;16.48;;
52210;SDS011;38179;52.756;6.906;2023-05-10T12:01:01;18.50;;;16.90;;
52210;SDS011;38179;52.756;6.906;2023-05-10T12:03:28;18.52;;;16.90;;
52210;SDS011;38179;52.756;6.906;2023-05-10T12:05:55;17.80;;;16.10;;
52210;SDS011;38179;52.756;6.906;2023-05-10T12:08:23;18.73;;;17.02;;
52210;SDS011;38179;52.756;6.906;2023-05-10T12:10:51;17.15;;;15.68;;
52210;SDS011;38179;52.756;6.906;2023-05-10T12:13:19;18.10;;;16.42;;
52210;SDS011;38179;52.756;6.906;2023-05-10T12:15:46;17.75;;;16.15;;
52210;SDS011;38179;52.756;6.906;2023-05-10T12:18:12;17.38;;;15.88;;
52210;SDS011;38179;52.756;6.906;2023-05-10T12:20:39;17.60;;;15.85;;
52210;SDS011;38179;52.756;6.906;2023-05-10T12:23:08;18.45;;;16.75;;
52210;SDS011;38179;52.756;6.906;2023-05-10T12:25:35;17.83;;;16.33;;
52210;SDS011;38179;52.756;6.906;2023-05-10T12:28:03;18.20;;;16.55;;
52210;SDS011;38179;52.756;6.906;2023-05-10T12:30:33;18.88;;;17.08;;
52210;SDS011;38179;52.756;6.906;2023-05-10T12:33:17;19.23;;;17.58;;
52210;SDS011;38179;52.756;6.906;2023-05-10T12:35:47;19.63;;;17.92;;
52210;SDS011;38179;52.756;6.906;2023-05-10T12:38:24;19.58;;;17.77;;
52210;SDS011;38179;52.756;6.906;2023-05-10T12:43:45;20.60;;;18.55;;
52210;SDS011;38179;52.756;6.906;2023-05-10T12:46:12;19.23;;;17.48;;
52210;SDS011;38179;52.756;6.906;2023-05-10T12:48:40;18.45;;;16.73;;
52210;SDS011;38179;52.756;6.906;2023-05-10T12:51:07;18.02;;;16.42;;
52210;SDS011;38179;52.756;6.906;2023-05-10T12:53:42;18.20;;;16.60;;
52210;SDS011;38179;52.756;6.906;2023-05-10T12:56:10;18.65;;;16.95;;
52210;SDS011;38179;52.756;6.906;2023-05-10T12:58:38;19.15;;;17.30;;
52210;SDS011;38179;52.756;6.906;2023-05-10T13:01:04;18.42;;;16.73;;
52210;SDS011;38179;52.756;6.906;2023-05-10T13:03:31;18.63;;;16.83;;
52210;SDS011;38179;52.756;6.906;2023-05-10T13:05:57;19.00;;;17.25;;
52210;SDS011;38179;52.756;6.906;2023-05-10T13:08:23;18.52;;;16.77;;
52210;SDS011;38179;52.756;6.906;2023-05-10T13:10:50;17.75;;;16.23;;
52210;SDS011;38179;52.756;6.906;2023-05-10T13:13:15;17.10;;;15.68;;
52210;SDS011;38179;52.756;6.906;2023-05-10T13:15:42;18.10;;;16.30;;
52210;SDS011;38179;52.756;6.906;2023-05-10T13:18:08;17.73;;;16.13;;
52210;SDS011;38179;52.756;6.906;2023-05-10T13:20:34;17.92;;;16.33;;
52210;SDS011;38179;52.756;6.906;2023-05-10T13:23:01;17.17;;;15.68;;
52210;SDS011;38179;52.756;6.906;2023-05-10T13:25:27;17.73;;;16.02;;
52210;SDS011;38179;52.756;6.906;2023-05-10T13:27:53;16.95;;;15.55;;
52210;SDS011;38179;52.756;6.906;2023-05-10T13:30:19;17.63;;;15.95;;
52210;SDS011;38179;52.756;6.906;2023-05-10T13:32:45;18.73;;;17.13;;
52210;SDS011;38179;52.756;6.906;2023-05-10T13:35:11;19.20;;;17.35;;
52210;SDS011;38179;52.756;6.906;2023-05-10T13:37:37;20.00;;;18.10;;
52210;SDS011;38179;52.756;6.906;2023-05-10T13:40:03;18.55;;;16.65;;
52210;SDS011;38179;52.756;6.906;2023-05-10T13:42:30;18.85;;;16.85;;
52210;SDS011;38179;52.756;6.906;2023-05-10T13:44:59;19.20;;;17.40;;
52210;SDS011;38179;52.756;6.906;2023-05-10T13:47:26;18.95;;;17.05;;
52210;SDS011;38179;52.756;6.906;2023-05-10T13:49:52;19.30;;;17.60;;
52210;SDS011;38179;52.756;6.906;2023-05-10T13:52:18;19.92;;;18.15;;
52210;SDS011;38179;52.756;6.906;2023-05-10T13:54:44;18.00;;;16.27;;
52210;SDS011;38179;52.756;6.906;2023-05-10T13:57:10;17.98;;;16.48;;
52210;SDS011;38179;52.756;6.906;2023-05-10T13:59:37;18.40;;;16.70;;
52210;SDS011;38179;52.756;6.906;2023-05-10T14:02:05;18.35;;;16.67;;
52210;SDS011;38179;52.756;6.906;2023-05-10T14:04:31;19.27;;;17.52;;
52210;SDS011;38179;52.756;6.906;2023-05-10T14:06:57;19.10;;;17.20;;
52210;SDS011;38179;52.756;6.906;2023-05-10T14:09:23;18.73;;;17.02;;
52210;SDS011;38179;52.756;6.906;2023-05-10T14:11:49;19.88;;;18.08;;
52210;SDS011;38179;52.756;6.906;2023-05-10T14:14:15;18.73;;;17.02;;
52210;SDS011;38179;52.756;6.906;2023-05-10T14:16:42;19.23;;;17.42;;
52210;SDS011;38179;52.756;6.906;2023-05-10T14:19:09;19.17;;;17.48;;
52210;SDS011;38179;52.756;6.906;2023-05-10T14:21:35;19.30;;;17.40;;
52210;SDS011;38179;52.756;6.906;2023-05-10T14:24:01;19.90;;;18.00;;
52210;SDS011;38179;52.756;6.906;2023-05-10T14:26:27;19.58;;;17.80;;
52210;SDS011;38179;52.756;6.906;2023-05-10T14:28:53;20.80;;;18.90;;
52210;SDS011;38179;52.756;6.906;2023-05-10T14:31:19;19.02;;;17.20;;
52210;SDS011;38179;52.756;6.906;2023-05-10T14:33:48;21.33;;;17.52;;
52210;SDS011;38179;52.756;6.906;2023-05-10T14:36:15;18.52;;;16.35;;
52210;SDS011;38179;52.756;6.906;2023-05-10T14:38:42;18.10;;;16.30;;
52210;SDS011;38179;52.756;6.906;2023-05-10T14:41:08;17.75;;;16.02;;
52210;SDS011;38179;52.756;6.906;2023-05-10T14:43:39;16.58;;;15.18;;
52210;SDS011;38179;52.756;6.906;2023-05-10T14:46:06;16.77;;;15.27;;
52210;SDS011;38179;52.756;6.906;2023-05-10T14:48:32;17.17;;;15.50;;
52210;SDS011;38179;52.756;6.906;2023-05-10T14:51:01;17.02;;;15.43;;
52210;SDS011;38179;52.756;6.906;2023-05-10T14:53:27;17.27;;;15.75;;
52210;SDS011;38179;52.756;6.906;2023-05-10T14:55:53;17.48;;;15.63;;
52210;SDS011;38179;52.756;6.906;2023-05-10T15:00:56;17.08;;;15.38;;
52210;SDS011;38179;52.756;6.906;2023-05-10T15:03:22;18.27;;;16.58;;
52210;SDS011;38179;52.756;6.906;2023-05-10T15:05:48;17.83;;;16.23;;